Time;durP1;ratioP1;P1;durP2;ratioP2;P2;SDS_P1;SDS_P2;PMS_P1;PMS_P2;Temp;Humidity;BMP_temperature;BMP_pressure;BME280_temperature;BME280_humidity;BME280_pressure;Samples;Min_cycle;Max_cycle;Signal;HPM_P1;HPM_P2
2022/01/24 07:48:39;;;;;;;15.30;8.70;;;;;;;-0.20;100.00;100743.47;5109748;27;20739;-83
2022/01/24 07:51:06;;;;;;;13.07;9.00;;;;;;;-0.13;100.00;100734.19;5108491;28;20044;-83
2022/01/24 07:53:35;;;;;;;20.03;9.90;;;;;;;0.06;100.00;100741.25;5111091;28;20621;-83
2022/01/24 07:56:02;;;;;;;15.88;9.48;;;;;;;0.16;100.00;100729.16;5110259;28;20074;-83
2022/01/24 07:58:29;;;;;;;14.25;9.18;;;;;;;0.25;100.00;100741.19;5110912;28;20123;-84
2022/01/24 08:00:55;;;;;;;17.42;8.98;;;;;;;0.29;100.00;100726.72;5111421;28;20044;-84
2022/01/24 08:03:22;;;;;;;13.40;8.50;;;;;;;0.52;100.00;100753.09;5108975;28;20418;-83
2022/01/24 08:05:50;;;;;;;12.65;8.23;;;;;;;0.48;100.00;100753.34;5083741;28;20044;-84
2022/01/24 08:08:21;;;;;;;17.15;8.73;;;;;;;0.55;100.00;100756.56;5088872;28;20044;-81
2022/01/24 08:10:48;;;;;;;20.85;9.10;;;;;;;0.51;100.00;100753.19;5090367;28;20463;-84
2022/01/24 08:13:14;;;;;;;14.85;9.30;;;;;;;0.62;100.00;100756.16;5089936;28;20506;-84
2022/01/24 08:15:41;;;;;;;16.63;8.88;;;;;;;0.57;100.00;100735.94;5080013;28;20072;-84
2022/01/24 08:18:09;;;;;;;16.27;10.23;;;;;;;0.68;100.00;100745.13;5077685;28;20044;-81
2022/01/24 08:20:36;;;;;;;18.83;10.07;;;;;;;0.84;100.00;100734.47;5089282;28;20138;-81
2022/01/24 08:23:05;;;;;;;16.02;9.40;;;;;;;0.87;100.00;100714.66;5095255;28;20044;-82
2022/01/24 08:25:32;;;;;;;15.93;9.02;;;;;;;1.11;100.00;100733.84;5090268;28;20040;-81
2022/01/24 08:27:59;;;;;;;18.77;9.13;;;;;;;1.23;100.00;100738.53;5080056;28;20453;-82
2022/01/24 08:30:27;;;;;;;14.00;9.23;;;;;;;1.23;100.00;100722.47;5086590;28;20044;-82
2022/01/24 08:32:53;;;;;;;13.98;8.52;;;;;;;1.34;100.00;100734.38;5088071;28;20108;-83
2022/01/24 08:35:23;;;;;;;10.52;7.53;;;;;;;1.33;100.00;100738.88;5089654;28;20058;-82
2022/01/24 08:37:52;;;;;;;9.75;7.15;;;;;;;1.35;100.00;100720.03;5079189;28;20040;-82
2022/01/24 08:40:26;;;;;;;9.90;7.00;;;;;;;1.35;100.00;100728.91;5082217;28;20061;-83
2022/01/24 08:43:00;;;;;;;11.48;5.93;;;;;;;1.32;100.00;100725.56;5076261;28;20044;-83
2022/01/24 08:45:50;;;;;;;9.35;6.20;;;;;;;1.41;100.00;100733.94;5084786;28;20105;-83
2022/01/24 08:48:22;;;;;;;14.55;6.70;;;;;;;1.43;100.00;100744.59;5086695;28;20060;-83
2022/01/24 08:50:51;;;;;;;9.48;6.40;;;;;;;1.48;100.00;100742.50;5087599;28;20059;-83
2022/01/24 08:53:21;;;;;;;9.10;6.35;;;;;;;1.63;100.00;100745.25;5087982;28;20055;-83
2022/01/24 08:55:51;;;;;;;10.50;7.00;;;;;;;1.58;100.00;100732.97;5089086;28;20055;-82
2022/01/24 08:58:18;;;;;;;8.57;6.13;;;;;;;1.59;100.00;100741.88;5082491;28;20071;-83
2022/01/24 09:00:46;;;;;;;10.70;6.32;;;;;;;1.62;100.00;100728.28;5078459;28;20048;-83
2022/01/24 09:03:16;;;;;;;6.55;5.22;;;;;;;1.73;100.00;100743.75;5067460;28;20048;-83
2022/01/24 09:05:47;;;;;;;8.15;5.65;;;;;;;1.73;100.00;100735.69;5068555;28;20053;-83
2022/01/24 09:08:15;;;;;;;7.97;4.93;;;;;;;1.72;100.00;100742.91;5061774;28;20049;-83
2022/01/24 09:10:46;;;;;;;8.10;4.50;;;;;;;1.69;100.00;100724.31;5061899;28;20047;-84
2022/01/24 09:13:19;;;;;;;14.60;5.97;;;;;;;1.72;100.00;100729.50;5064123;28;20052;-84
2022/01/24 09:15:50;;;;;;;7.85;5.18;;;;;;;1.83;100.00;100739.59;5066485;28;20045;-84
2022/01/24 09:18:20;;;;;;;7.78;5.15;;;;;;;1.82;100.00;100735.16;5066193;28;20049;-84
2022/01/24 09:20:50;;;;;;;8.82;4.88;;;;;;;1.79;100.00;100726.44;5073177;28;20057;-83
2022/01/24 09:23:17;;;;;;;5.60;4.72;;;;;;;1.88;100.00;100733.94;5068306;28;20059;-84
2022/01/24 09:25:45;;;;;;;5.47;4.38;;;;;;;1.98;100.00;100734.28;5074968;28;20048;-84
2022/01/24 09:28:12;;;;;;;5.75;4.25;;;;;;;1.89;100.00;100715.06;5073591;28;20509;-83
2022/01/24 09:30:40;;;;;;;7.63;4.85;;;;;;;2.01;100.00;100726.91;5074855;28;20047;-84
2022/01/24 09:33:06;;;;;;;7.90;4.07;;;;;;;2.07;100.00;100731.91;5074994;28;20060;-84
2022/01/24 09:35:33;;;;;;;8.00;4.30;;;;;;;2.05;100.00;100714.19;5074232;28;20071;-84
2022/01/24 09:38:00;;;;;;;5.80;3.50;;;;;;;2.10;100.00;100726.34;5074566;28;20045;-84
2022/01/24 09:40:27;;;;;;;4.72;3.38;;;;;;;2.12;100.00;100718.19;5073790;28;20048;-83
2022/01/24 09:42:53;;;;;;;11.45;6.55;;;;;;;2.30;100.00;100743.06;5065424;28;20123;-83
2022/01/24 09:45:21;;;;;;;5.35;4.22;;;;;;;2.29;100.00;100728.78;5070270;28;20131;-86
2022/01/24 09:47:50;;;;;;;4.60;3.95;;;;;;;2.35;100.00;100732.03;5071823;28;20045;-83
2022/01/24 09:50:21;;;;;;;5.33;4.07;;;;;;;2.41;100.00;100745.97;5074369;28;20058;-83
2022/01/24 09:52:50;;;;;;;7.55;4.00;;;;;;;2.39;100.00;100728.22;5070337;28;20334;-83
2022/01/24 09:55:21;;;;;;;7.93;3.72;;;;;;;2.45;100.00;100738.56;5074608;28;20402;-84
2022/01/24 09:57:49;;;;;;;4.43;3.80;;;;;;;2.38;100.00;100723.78;5069575;28;20058;-83
2022/01/24 10:00:19;;;;;;;9.60;4.72;;;;;;;2.52;100.00;100728.34;5074185;28;20052;-84
2022/01/24 10:02:49;;;;;;;11.50;6.00;;;;;;;2.53;100.00;100736.31;5076059;28;20135;-84
2022/01/24 10:05:19;;;;;;;5.57;3.92;;;;;;;2.44;100.00;100728.81;5063611;28;20135;-84
2022/01/24 10:07:54;;;;;;;4.82;4.00;;;;;;;2.62;100.00;100724.97;5075241;28;20048;-84
2022/01/24 10:10:33;;;;;;;6.63;3.63;;;;;;;2.65;100.00;100727.47;5068480;28;20048;-85
2022/01/24 10:16:29;;;;;;;7.38;4.00;;;;;;;2.74;100.00;100717.09;5071350;28;20510;-85
2022/01/24 10:19:10;;;;;;;15.70;6.47;;;;;;;2.88;100.00;100737.75;5064520;28;20518;-84
2022/01/24 10:21:43;;;;;;;13.45;8.05;;;;;;;2.94;100.00;100729.28;5065688;28;20052;-84
2022/01/24 10:24:12;;;;;;;15.13;4.30;;;;;;;2.98;97.85;100709.31;5065147;28;20167;-84
2022/01/24 10:26:41;;;;;;;7.07;3.43;;;;;;;3.14;98.14;100726.16;5068497;28;20068;-84
2022/01/24 10:29:12;;;;;;;5.22;3.58;;;;;;;3.18;100.00;100725.03;5053382;28;20059;-84
2022/01/24 10:31:48;;;;;;;4.57;3.65;;;;;;;3.19;100.00;100724.06;5071545;28;20522;-83
2022/01/24 10:34:22;;;;;;;5.65;3.95;;;;;;;3.17;99.96;100707.16;5069437;28;20124;-84
2022/01/24 10:36:51;;;;;;;4.70;3.03;;;;;;;3.34;95.30;100710.56;5073112;28;20049;-84
2022/01/24 10:39:27;;;;;;;4.93;3.28;;;;;;;3.35;94.25;100707.78;5071755;28;20048;-84
2022/01/24 10:45:13;;;;;;;4.88;3.20;;;;;;;3.62;92.45;100698.88;5071762;28;20052;-84
2022/01/24 10:47:45;;;;;;;5.13;2.97;;;;;;;3.62;92.33;100696.19;5072240;28;20048;-84
2022/01/24 10:50:18;;;;;;;6.55;3.33;;;;;;;3.33;94.48;100684.69;5074058;28;20487;-84
2022/01/24 10:52:47;;;;;;;5.95;3.90;;;;;;;3.39;94.68;100686.97;5073288;28;20052;-84
2022/01/24 10:55:17;;;;;;;3.45;2.75;;;;;;;3.44;91.63;100681.28;5064820;28;20539;-84
2022/01/24 10:57:47;;;;;;;3.92;3.30;;;;;;;3.61;92.84;100688.22;5073355;28;20123;-84
2022/01/24 11:00:16;;;;;;;6.13;3.60;;;;;;;3.69;92.26;100670.59;5070357;28;20054;-84
2022/01/24 11:02:44;;;;;;;5.05;3.40;;;;;;;3.70;92.35;100669.63;5073403;28;20066;-84
2022/01/24 11:05:13;;;;;;;3.53;3.20;;;;;;;3.82;92.79;100676.00;5070728;28;20106;-84
2022/01/24 11:07:53;;;;;;;5.00;3.60;;;;;;;3.81;91.60;100668.91;5058811;28;20037;-84
2022/01/24 11:10:23;;;;;;;9.90;3.70;;;;;;;4.01;91.48;100689.06;5073602;28;20059;-84
2022/01/24 11:12:50;;;;;;;8.48;3.67;;;;;;;4.02;90.02;100661.19;5073709;28;20155;-84
2022/01/24 11:15:16;;;;;;;5.32;3.55;;;;;;;4.08;89.46;100684.97;5073179;28;20050;-84
2022/01/24 11:17:43;;;;;;;3.63;3.17;;;;;;;4.12;91.10;100696.38;5071382;28;20114;-84
2022/01/24 11:20:15;;;;;;;5.55;3.50;;;;;;;4.11;89.67;100667.78;5071045;28;20044;-84
2022/01/24 11:22:45;;;;;;;5.55;3.20;;;;;;;4.27;90.17;100678.31;5071894;28;20045;-84
2022/01/24 11:25:15;;;;;;;5.15;2.97;;;;;;;4.31;88.50;100673.59;5068868;28;20074;-84
2022/01/24 11:27:44;;;;;;;5.57;3.40;;;;;;;4.32;86.97;100675.28;5063138;28;20052;-84
2022/01/24 11:30:14;;;;;;;4.70;3.30;;;;;;;4.37;88.20;100668.63;5063257;28;20048;-83
2022/01/24 11:32:46;;;;;;;;;;;;;;;4.43;87.79;100686.19;5069824;28;20059;-84
2022/01/24 11:35:12;;;;;;;5.53;4.28;;;;;;;4.24;88.39;100676.69;5069310;28;19920;-84
2022/01/24 11:37:42;;;;;;;5.57;3.63;;;;;;;4.22;88.28;100667.00;5069232;28;20048;-84
2022/01/24 11:40:14;;;;;;;7.22;3.85;;;;;;;4.45;88.22;100675.31;5072779;28;20044;-82
2022/01/24 11:42:43;;;;;;;5.35;3.00;;;;;;;4.50;88.35;100674.00;5060078;28;20071;-84
2022/01/24 11:45:14;;;;;;;5.05;3.58;;;;;;;4.53;87.74;100676.50;5077526;28;20189;-83
2022/01/24 11:47:42;;;;;;;4.93;2.90;;;;;;;4.50;88.95;100660.56;5068847;28;20094;-84
2022/01/24 11:50:36;;;;;;;4.97;3.35;;;;;;;4.70;90.28;100671.72;5073404;28;20080;-84
2022/01/24 11:53:20;;;;;;;4.50;3.20;;;;;;;4.67;86.26;100650.41;5053398;28;20119;-84
2022/01/24 11:55:48;;;;;;;4.35;3.08;;;;;;;4.74;86.25;100655.22;5070696;28;20037;-84
2022/01/24 11:58:23;;;;;;;4.68;3.28;;;;;;;4.71;85.91;100647.38;5058147;28;20106;-84
2022/01/24 12:00:51;;;;;;;7.43;2.92;;;;;;;4.81;86.32;100652.09;5068455;28;20515;-84
2022/01/24 12:03:23;;;;;;;5.18;2.55;;;;;;;4.64;85.64;100624.53;5070065;28;20048;-84
2022/01/24 12:05:53;;;;;;;6.25;2.58;;;;;;;4.54;86.85;100637.78;5072690;28;20045;-84
2022/01/24 12:08:33;;;;;;;4.22;3.05;;;;;;;4.64;88.06;100656.88;5069905;28;20547;-83
2022/01/24 12:11:19;;;;;;;5.32;2.60;;;;;;;4.74;88.51;100643.56;5069798;28;20479;-84
2022/01/24 12:13:49;;;;;;;4.30;2.63;;;;;;;4.77;86.80;100636.16;5069949;28;20056;-84
2022/01/24 12:16:17;;;;;;;3.38;2.42;;;;;;;4.68;86.18;100628.75;5072199;28;20127;-84
2022/01/24 12:19:06;;;;;;;6.22;2.75;;;;;;;4.78;87.47;100642.38;5072515;28;20488;-84
2022/01/24 12:21:35;;;;;;;3.83;2.47;;;;;;;4.72;85.88;100645.53;5072025;28;20055;-83
2022/01/24 12:24:05;;;;;;;4.13;2.50;;;;;;;4.71;87.05;100655.47;5071188;28;20052;-84
2022/01/24 12:26:35;;;;;;;;;;;;;;;4.87;87.58;100652.50;5071554;28;20487;-83
2022/01/24 12:29:05;;;;;;;8.90;2.75;;;;;;;4.86;86.25;100644.53;5055628;28;19920;-84
2022/01/24 12:31:36;;;;;;;;;;;;;;;4.78;86.42;100639.69;5070435;28;20059;-83
2022/01/24 12:34:18;;;;;;;7.00;2.80;;;;;;;4.77;87.46;100628.06;5072890;28;19927;-83
2022/01/24 12:37:08;;;;;;;4.10;3.22;;;;;;;4.79;86.62;100627.97;5074910;28;20052;-83
2022/01/24 12:39:49;;;;;;;4.97;3.28;;;;;;;4.87;86.48;100635.47;5071302;28;20044;-84
2022/01/24 12:42:49;;;;;;;4.20;2.63;;;;;;;4.81;86.64;100608.97;5074032;28;20087;-84
2022/01/24 12:48:08;;;;;;;2.63;2.08;;;;;;;4.94;86.67;100617.88;5075452;28;20434;-85
2022/01/24 12:50:35;;;;;;;4.47;2.42;;;;;;;4.98;84.58;100597.78;5057488;28;20136;-84
2022/01/24 12:53:01;;;;;;;3.33;2.20;;;;;;;5.08;83.58;100608.78;5057648;28;20048;-84
2022/01/24 12:55:28;;;;;;;4.43;2.10;;;;;;;4.79;85.97;100590.22;5074821;28;20051;-84
2022/01/24 12:57:56;;;;;;;6.63;2.63;;;;;;;4.85;86.00;100581.69;5072948;28;20046;-84
2022/01/24 13:00:24;;;;;;;2.78;2.33;;;;;;;4.99;83.95;100604.91;5071823;28;20041;-83
2022/01/24 13:02:51;;;;;;;3.13;2.30;;;;;;;5.04;84.33;100599.19;5064908;28;20403;-83
2022/01/24 13:05:20;;;;;;;5.35;2.00;;;;;;;4.93;84.71;100594.59;5076684;28;20103;-82
2022/01/24 13:07:52;;;;;;;2.30;1.98;;;;;;;5.07;85.69;100586.34;5062666;28;20051;-83
2022/01/24 13:10:22;;;;;;;4.15;2.47;;;;;;;5.06;85.34;100567.56;5074907;28;20385;-83
2022/01/24 13:13:00;;;;;;;3.47;2.30;;;;;;;5.16;87.18;100592.03;5068643;28;20109;-84
2022/01/24 13:20:26;;;;;;;3.22;2.83;;;;;;;5.20;87.26;100588.13;5072734;28;20049;-84
2022/01/24 13:21:10;;;;;;;6.40;2.47;;;;;;;5.35;85.15;100594.19;5070946;28;20411;-83
2022/01/24 13:23:42;;;;;;;3.63;2.80;;;;;;;5.23;85.77;100574.41;5071897;28;20052;-83
2022/01/24 13:26:10;;;;;;;6.22;2.60;;;;;;;5.11;84.20;100570.81;5072572;28;20492;-83
2022/01/24 13:28:39;;;;;;;3.83;2.47;;;;;;;5.12;83.08;100588.72;5068943;28;20049;-83
2022/01/24 13:31:07;;;;;;;7.18;2.30;;;;;;;5.20;82.13;100583.59;5070118;28;20044;-84
2022/01/24 13:33:35;;;;;;;5.53;2.50;;;;;;;5.30;81.51;100578.38;5075686;28;20510;-83
2022/01/24 13:36:06;;;;;;;3.55;2.28;;;;;;;5.31;83.97;100574.69;5074290;28;20052;-83
2022/01/24 13:38:34;;;;;;;5.13;2.30;;;;;;;5.27;81.89;100560.59;5067189;28;20048;-84
2022/01/24 13:41:05;;;;;;;2.78;1.98;;;;;;;5.46;81.45;100578.03;5074152;28;20517;-83
2022/01/24 13:43:50;;;;;;;2.80;1.65;;;;;;;5.41;82.73;100567.63;5073425;28;20044;-83
2022/01/24 13:46:19;;;;;;;4.63;2.28;;;;;;;5.38;82.91;100562.47;5069415;28;20575;-84
2022/01/24 13:48:48;;;;;;;3.50;2.30;;;;;;;5.52;83.23;100565.94;5072443;28;20127;-83
2022/01/24 13:51:16;;;;;;;3.55;2.28;;;;;;;5.52;81.51;100561.38;5071511;28;20135;-83
2022/01/24 13:53:45;;;;;;;3.72;1.85;;;;;;;5.36;81.73;100548.25;5059912;28;20049;-84
2022/01/24 13:56:24;;;;;;;3.75;2.00;;;;;;;5.54;82.70;100569.38;5068493;28;20056;-83
2022/01/24 13:59:05;;;;;;;7.55;2.08;;;;;;;5.63;81.23;100563.25;5071613;28;20044;-84
2022/01/24 14:01:32;;;;;;;3.25;1.83;;;;;;;5.65;80.97;100572.97;5066703;28;20500;-83
2022/01/24 14:04:00;;;;;;;5.88;1.88;;;;;;;5.50;81.27;100561.50;5074508;28;20048;-83
2022/01/24 14:06:31;;;;;;;4.18;2.08;;;;;;;5.55;83.19;100547.66;5068421;28;20045;-83
2022/01/24 14:09:06;;;;;;;5.38;1.58;;;;;;;5.63;81.03;100556.03;5071590;28;20502;-83
2022/01/24 14:11:33;;;;;;;5.00;1.70;;;;;;;5.81;79.90;100574.44;5074246;28;20510;-83
2022/01/24 14:14:06;;;;;;;4.90;1.77;;;;;;;5.84;80.14;100568.81;5073289;28;20398;-82
2022/01/24 14:16:45;;;;;;;9.30;2.22;;;;;;;5.98;81.37;100578.59;5071723;28;20051;-83
2022/01/24 14:19:12;;;;;;;4.28;1.90;;;;;;;6.07;79.00;100571.56;5063030;28;20135;-84
2022/01/24 14:21:38;;;;;;;3.88;1.40;;;;;;;6.02;78.51;100561.16;5071107;28;20131;-83
2022/01/24 14:24:07;;;;;;;2.70;1.63;;;;;;;6.07;81.11;100564.34;5072651;28;20041;-83
2022/01/24 14:26:34;;;;;;;2.70;1.75;;;;;;;5.91;78.67;100547.63;5072413;28;20103;-83
2022/01/24 14:29:07;;;;;;;2.75;1.88;;;;;;;6.07;78.68;100582.38;5073652;28;20054;-83
2022/01/24 14:31:35;;;;;;;7.97;2.05;;;;;;;5.99;79.56;100559.56;5073351;28;20048;-83
2022/01/24 14:34:03;;;;;;;1.98;1.40;;;;;;;5.83;80.63;100561.72;5070315;28;20131;-83
2022/01/24 14:36:30;;;;;;;5.88;1.60;;;;;;;5.85;82.35;100559.75;5069314;28;20385;-83
2022/01/24 14:39:00;;;;;;;2.42;1.42;;;;;;;5.86;82.11;100558.78;5071789;28;20048;-83
2022/01/24 14:41:34;;;;;;;5.15;2.00;;;;;;;5.87;80.79;100573.13;5071446;28;20092;-83
2022/01/24 14:46:54;;;;;;;2.22;1.42;;;;;;;5.79;81.30;100566.47;5073585;28;20105;-83
2022/01/24 14:49:24;;;;;;;2.08;1.38;;;;;;;5.82;81.77;100552.75;5069376;28;20041;-83
2022/01/24 14:51:53;;;;;;;3.92;1.30;;;;;;;5.85;80.38;100547.09;5073406;28;20080;-83
2022/01/24 14:54:21;;;;;;;2.28;1.88;;;;;;;6.03;81.45;100565.56;5067572;28;20075;-83
2022/01/24 14:56:51;;;;;;;5.65;1.80;;;;;;;6.08;79.40;100573.31;5074200;28;20106;-83
2022/01/24 14:59:17;;;;;;;3.50;1.37;;;;;;;5.96;80.49;100550.81;5070038;28;20479;-83
2022/01/24 15:01:45;;;;;;;2.05;1.40;;;;;;;5.91;80.69;100561.97;5057361;28;20310;-82
2022/01/24 15:04:14;;;;;;;8.07;1.90;;;;;;;5.95;80.52;100565.31;5074597;28;20412;-83
2022/01/24 15:06:41;;;;;;;2.40;1.80;;;;;;;5.98;81.33;100567.78;5060286;28;20044;-83
2022/01/24 15:09:09;;;;;;;1.60;1.45;;;;;;;5.87;81.28;100555.06;5064110;28;20051;-83
2022/01/24 15:11:37;;;;;;;1.48;1.20;;;;;;;5.88;81.79;100572.16;5063127;28;20075;-83
2022/01/24 15:14:10;;;;;;;2.83;1.50;;;;;;;5.80;81.91;100570.91;5071177;28;20143;-83
2022/01/24 15:16:43;;;;;;;4.40;1.70;;;;;;;5.74;83.22;100578.63;5072074;28;20049;-83
2022/01/24 15:27:27;;;;;;;4.65;1.33;;;;;;;5.32;84.06;100561.06;5063054;28;20055;-83
2022/01/24 15:29:53;;;;;;;2.05;1.70;;;;;;;5.17;86.00;100561.41;5071525;28;20052;-83
2022/01/24 15:32:20;;;;;;;2.60;1.52;;;;;;;4.98;88.99;100551.97;5067011;28;20053;-83
2022/01/24 15:34:49;;;;;;;1.80;1.60;;;;;;;4.77;91.39;100560.72;5069268;28;20404;-83
2022/01/24 15:37:17;;;;;;;2.20;1.93;;;;;;;4.75;92.50;100564.47;5063648;28;20144;-83
2022/01/24 15:39:44;;;;;;;3.63;2.50;;;;;;;4.47;94.72;100557.56;5061403;28;20121;-83
2022/01/24 15:42:15;;;;;;;5.93;1.83;;;;;;;4.54;94.96;100573.16;5069033;28;20063;-83
2022/01/24 15:47:34;;;;;;;5.65;2.20;;;;;;;4.17;97.04;100558.78;5067551;28;20052;-83
2022/01/24 15:50:04;;;;;;;4.93;2.13;;;;;;;4.27;97.68;100576.00;5071452;28;20087;-83
2022/01/24 15:52:32;;;;;;;10.13;2.20;;;;;;;3.96;100.00;100561.16;5071237;28;20049;-83
2022/01/24 15:55:05;;;;;;;3.42;2.00;;;;;;;4.11;100.00;100578.06;5067719;28;20055;-83
2022/01/24 15:57:42;;;;;;;3.97;2.03;;;;;;;3.93;100.00;100551.50;5071805;28;20050;-83
2022/01/24 16:00:14;;;;;;;5.03;2.50;;;;;;;3.95;100.00;100557.63;5052667;28;20045;-84
2022/01/24 16:02:42;;;;;;;3.03;1.83;;;;;;;3.84;100.00;100577.22;5067313;28;20458;-83
2022/01/24 16:05:09;;;;;;;12.88;2.38;;;;;;;3.71;100.00;100570.97;5069929;28;20040;-83
2022/01/24 16:07:39;;;;;;;4.32;2.17;;;;;;;3.57;100.00;100571.03;5064793;28;20040;-83
2022/01/24 16:10:09;;;;;;;5.70;2.10;;;;;;;3.65;100.00;100558.81;5074994;28;20036;-83
2022/01/24 16:12:42;;;;;;;5.18;2.08;;;;;;;3.69;100.00;100572.91;5075579;28;20447;-83
2022/01/24 16:15:12;;;;;;;10.98;2.40;;;;;;;3.67;100.00;100570.34;5075567;28;20091;-83
2022/01/24 16:17:41;;;;;;;4.55;2.30;;;;;;;3.42;100.00;100568.47;5075375;28;20139;-83
2022/01/24 16:20:21;;;;;;;5.40;2.30;;;;;;;3.33;100.00;100569.94;5074746;28;20132;-83
2022/01/24 16:25:42;;;;;;;5.38;2.47;;;;;;;2.95;100.00;100580.56;5069798;28;20051;-84
2022/01/24 16:28:11;;;;;;;8.77;2.15;;;;;;;2.91;100.00;100581.75;5075408;28;20044;-84
2022/01/24 16:30:41;;;;;;;3.28;2.38;;;;;;;2.66;100.00;100559.16;5074966;28;20044;-83
2022/01/24 16:33:10;;;;;;;8.35;2.33;;;;;;;2.65;100.00;100585.16;5074569;28;20410;-84
2022/01/24 16:35:39;;;;;;;3.05;1.85;;;;;;;2.50;100.00;100579.91;5055187;28;20048;-83
2022/01/24 16:38:10;;;;;;;2.72;1.90;;;;;;;2.42;100.00;100589.28;5055140;28;20498;-83
2022/01/24 16:40:43;;;;;;;2.40;1.77;;;;;;;2.29;100.00;100588.38;5067513;28;20045;-83
2022/01/24 16:43:19;;;;;;;4.35;2.35;;;;;;;2.16;100.00;100590.09;5073884;28;20068;-83
2022/01/24 16:48:31;;;;;;;8.32;3.53;;;;;;;2.08;100.00;100585.22;5074903;28;20522;-83
2022/01/24 16:50:59;;;;;;;5.72;2.88;;;;;;;2.04;100.00;100592.56;5089561;28;20045;-83
2022/01/24 16:53:27;;;;;;;4.32;2.95;;;;;;;2.00;100.00;100584.81;5064698;28;20135;-83
2022/01/24 16:55:57;;;;;;;6.75;3.05;;;;;;;1.80;100.00;100572.66;5068573;28;20048;-83
2022/01/24 16:58:25;;;;;;;4.05;2.58;;;;;;;1.87;100.00;100592.78;5073775;28;20053;-83
2022/01/24 17:00:52;;;;;;;3.78;2.50;;;;;;;1.70;100.00;100589.31;5072954;28;20072;-84
2022/01/24 17:03:18;;;;;;;7.00;2.90;;;;;;;1.71;100.00;100599.06;5074563;28;20147;-83
2022/01/24 17:05:46;;;;;;;3.25;1.92;;;;;;;1.64;100.00;100603.09;5074295;28;20049;-84
2022/01/24 17:08:14;;;;;;;6.15;2.85;;;;;;;1.42;100.00;100576.69;5074168;28;20048;-84
2022/01/24 17:10:43;;;;;;;7.93;2.78;;;;;;;1.53;100.00;100598.34;5074085;28;20124;-83
2022/01/24 17:13:11;;;;;;;6.47;3.17;;;;;;;1.30;100.00;100580.97;5066057;28;20258;-84
2022/01/24 17:15:46;;;;;;;10.15;3.78;;;;;;;1.38;100.00;100593.91;5073728;28;20079;-83
2022/01/24 17:18:15;;;;;;;4.72;3.00;;;;;;;1.26;100.00;100603.53;5069888;28;20139;-83
2022/01/24 17:20:42;;;;;;;4.77;2.63;;;;;;;1.04;100.00;100585.19;5075683;28;20047;-83
2022/01/24 17:23:12;;;;;;;5.47;3.75;;;;;;;0.99;100.00;100571.19;5094840;28;20044;-83
2022/01/24 17:25:50;;;;;;;5.38;3.13;;;;;;;0.98;100.00;100577.47;5091262;28;20135;-83
2022/01/24 17:28:18;;;;;;;11.38;3.30;;;;;;;0.92;100.00;100593.91;5065618;28;20098;-83
2022/01/24 17:30:59;;;;;;;5.45;2.47;;;;;;;0.78;100.00;100575.94;5065534;28;20458;-83
2022/01/24 17:33:30;;;;;;;3.63;2.40;;;;;;;0.72;100.00;100571.81;5073964;28;20489;-83
2022/01/24 17:36:06;;;;;;;12.52;2.65;;;;;;;0.76;100.00;100593.94;5060470;28;20052;-83
2022/01/24 17:38:35;;;;;;;8.90;3.05;;;;;;;0.73;100.00;100583.41;5071174;28;20411;-83
2022/01/24 17:41:07;;;;;;;5.30;2.83;;;;;;;0.61;100.00;100582.28;5071814;28;20049;-83
2022/01/24 17:43:33;;;;;;;4.78;3.13;;;;;;;0.53;100.00;100567.50;5074271;28;20049;-83
2022/01/24 17:46:01;;;;;;;6.43;3.75;;;;;;;0.57;100.00;100580.72;5073957;28;20048;-83
2022/01/24 17:48:31;;;;;;;22.80;11.38;;;;;;;0.57;100.00;100599.44;5073235;28;20045;-83
2022/01/24 17:50:57;;;;;;;9.85;5.38;;;;;;;0.51;100.00;100582.78;5073229;28;20067;-83
2022/01/24 17:53:27;;;;;;;6.38;4.13;;;;;;;0.63;100.00;100591.94;5064523;28;20045;-83
2022/01/24 17:55:55;;;;;;;11.52;5.88;;;;;;;0.53;100.00;100591.59;5072467;28;20135;-83
2022/01/24 17:58:27;;;;;;;10.43;5.40;;;;;;;0.48;100.00;100582.97;5073489;28;20127;-83
2022/01/24 18:00:54;;;;;;;9.30;5.05;;;;;;;0.46;100.00;100602.72;5079911;28;20040;-83
2022/01/24 18:03:21;;;;;;;11.50;5.25;;;;;;;0.33;100.00;100581.13;5094241;28;20112;-82
2022/01/24 18:05:48;;;;;;;13.77;6.10;;;;;;;0.32;100.00;100593.63;5081354;28;20139;-83
2022/01/24 18:08:17;;;;;;;14.90;7.70;;;;;;;0.31;100.00;100599.06;5072966;28;20052;-83
2022/01/24 18:10:44;;;;;;;17.45;7.20;;;;;;;0.24;100.00;100592.31;5062283;28;20051;-83
2022/01/24 18:13:11;;;;;;;17.05;7.90;;;;;;;0.15;100.00;100593.69;5061836;28;20071;-83
2022/01/24 18:15:42;;;;;;;18.75;7.97;;;;;;;0.11;100.00;100592.16;5070189;28;20643;-83
2022/01/24 18:18:09;;;;;;;28.58;12.10;;;;;;;0.09;100.00;100580.66;5072387;28;20522;-83
2022/01/24 18:20:36;;;;;;;21.10;10.80;;;;;;;0.10;100.00;100590.41;5072697;28;20059;-84
2022/01/24 18:23:13;;;;;;;26.05;12.70;;;;;;;0.07;100.00;100590.56;5073483;28;20479;-84
2022/01/24 18:25:42;;;;;;;23.92;11.48;;;;;;;-0.02;100.00;100583.91;5073258;28;20050;-83
2022/01/24 18:28:10;;;;;;;22.10;11.70;;;;;;;0.00;100.00;100592.72;5072231;28;20055;-83
2022/01/24 18:30:36;;;;;;;20.10;10.48;;;;;;;-0.13;100.00;100588.97;5071840;28;20662;-84
2022/01/24 18:33:04;;;;;;;18.98;9.88;;;;;;;-0.16;100.00;100581.13;5072044;28;20048;-84
2022/01/24 18:35:31;;;;;;;22.98;10.43;;;;;;;-0.20;100.00;100596.44;5072849;28;20040;-83
2022/01/24 18:38:00;;;;;;;18.17;9.55;;;;;;;-0.22;100.00;100603.69;5070189;28;20083;-84
2022/01/24 18:40:27;;;;;;;16.80;8.90;;;;;;;-0.24;100.00;100603.78;5060886;28;20440;-84
2022/01/24 18:43:08;;;;;;;13.80;8.02;;;;;;;-0.29;100.00;100591.59;5072321;28;20048;-83
2022/01/24 18:45:34;;;;;;;21.35;8.43;;;;;;;-0.34;100.00;100599.00;5074835;28;20075;-84
2022/01/24 18:48:01;;;;;;;14.75;8.07;;;;;;;-0.38;100.00;100590.25;5071263;28;20079;-84
2022/01/24 18:50:30;;;;;;;16.40;8.88;;;;;;;-0.37;100.00;100597.34;5071804;28;20052;-84
2022/01/24 18:52:59;;;;;;;18.23;8.75;;;;;;;-0.39;100.00;100596.56;5072223;28;20048;-84
2022/01/24 18:55:26;;;;;;;19.20;9.93;;;;;;;-0.39;100.00;100605.44;5071099;28;20048;-84
2022/01/24 18:57:53;;;;;;;12.98;8.13;;;;;;;-0.51;100.00;100592.72;5072490;28;20476;-83
2022/01/24 19:00:22;;;;;;;16.85;9.07;;;;;;;-0.46;100.00;100609.34;5069781;28;20094;-84
2022/01/24 19:02:51;;;;;;;20.90;10.32;;;;;;;-0.49;100.00;100604.19;5068346;28;20056;-83
2022/01/24 19:05:20;;;;;;;18.70;9.32;;;;;;;-0.42;100.00;100602.91;5065415;28;20149;-84
2022/01/24 19:07:49;;;;;;;23.08;10.93;;;;;;;-0.49;100.00;100603.31;5058944;28;20446;-84
2022/01/24 19:10:24;;;;;;;21.35;11.02;;;;;;;-0.56;100.00;100590.28;5064606;28;20057;-83
2022/01/24 19:12:53;;;;;;;26.15;12.65;;;;;;;-0.48;100.00;100610.38;5060243;28;20048;-84
2022/01/24 19:15:26;;;;;;;29.02;12.48;;;;;;;-0.63;100.00;100593.31;5061006;28;20063;-84
2022/01/24 19:17:57;;;;;;;33.33;14.00;;;;;;;-0.66;100.00;100597.03;5069721;28;20143;-84
2022/01/24 19:23:19;;;;;;;31.35;14.35;;;;;;;-0.73;100.00;100595.59;5065827;28;20407;-84
2022/01/24 19:25:50;;;;;;;26.33;13.40;;;;;;;-0.72;100.00;100611.56;5062497;28;20044;-84
2022/01/24 19:28:18;;;;;;;32.25;15.18;;;;;;;-0.60;100.00;100623.44;5058815;28;20044;-84
2022/01/24 19:30:46;;;;;;;18.08;9.73;;;;;;;-0.72;100.00;100597.34;5065421;28;20066;-84
2022/01/24 19:33:16;;;;;;;11.23;6.45;;;;;;;-0.63;100.00;100628.03;5068243;28;20145;-84
2022/01/24 19:35:44;;;;;;;13.35;5.38;;;;;;;-0.78;100.00;100603.00;5062769;28;20051;-84
2022/01/24 19:38:13;;;;;;;18.50;4.55;;;;;;;-0.75;100.00;100616.19;5069245;28;20056;-84
2022/01/24 19:40:41;;;;;;;10.05;4.60;;;;;;;-0.81;100.00;100619.16;5070584;28;20044;-84
2022/01/24 19:43:08;;;;;;;6.10;3.38;;;;;;;-0.86;100.00;100618.53;5071331;28;20048;-84
2022/01/24 19:45:35;;;;;;;9.98;3.70;;;;;;;-0.94;100.00;100618.91;5071799;28;20071;-84
2022/01/24 19:48:04;;;;;;;8.75;3.88;;;;;;;-0.99;100.00;100618.28;5071439;28;20170;-84
2022/01/24 19:50:33;;;;;;;6.47;3.40;;;;;;;-1.07;100.00;100629.31;5070939;28;20447;-84
2022/01/24 19:53:00;;;;;;;8.45;3.70;;;;;;;-1.12;100.00;100621.53;5070925;28;20096;-84
2022/01/24 19:55:33;;;;;;;7.88;4.10;;;;;;;-1.12;100.00;100639.34;5062371;28;20114;-84
2022/01/24 19:58:11;;;;;;;6.82;4.25;;;;;;;-1.13;100.00;100634.94;5070882;28;20056;-84
2022/01/24 20:00:40;;;;;;;15.18;5.22;;;;;;;-1.27;100.00;100623.13;5065461;28;20064;-84